sensor_id;sensor_type;location;lat;lon;timestamp;P1;durP1;ratioP1;P2;durP2;ratioP2
6663;SDS011;58749;48.022;10.922;2022-11-30T00:01:53;35.83;;;20.85;;
6663;SDS011;58749;48.022;10.922;2022-11-30T00:04:22;37.30;;;22.15;;
6663;SDS011;58749;48.022;10.922;2022-11-30T00:06:50;37.97;;;21.25;;
6663;SDS011;58749;48.022;10.922;2022-11-30T00:09:22;40.22;;;21.23;;
6663;SDS011;58749;48.022;10.922;2022-11-30T00:11:51;39.50;;;21.08;;
6663;SDS011;58749;48.022;10.922;2022-11-30T00:14:19;33.72;;;19.63;;
6663;SDS011;58749;48.022;10.922;2022-11-30T00:16:47;36.83;;;21.52;;
6663;SDS011;58749;48.022;10.922;2022-11-30T00:19:15;35.63;;;19.88;;
6663;SDS011;58749;48.022;10.922;2022-11-30T00:21:43;36.83;;;21.20;;
6663;SDS011;58749;48.022;10.922;2022-11-30T00:24:11;36.30;;;21.88;;
6663;SDS011;58749;48.022;10.922;2022-11-30T00:26:39;39.28;;;21.73;;
6663;SDS011;58749;48.022;10.922;2022-11-30T00:29:09;40.08;;;22.08;;
6663;SDS011;58749;48.022;10.922;2022-11-30T00:31:38;38.22;;;22.27;;
6663;SDS011;58749;48.022;10.922;2022-11-30T00:34:06;40.17;;;23.50;;
6663;SDS011;58749;48.022;10.922;2022-11-30T00:36:34;38.03;;;21.88;;
6663;SDS011;58749;48.022;10.922;2022-11-30T00:39:02;41.28;;;22.45;;
6663;SDS011;58749;48.022;10.922;2022-11-30T00:41:30;37.50;;;21.73;;
6663;SDS011;58749;48.022;10.922;2022-11-30T00:43:58;36.75;;;21.17;;
6663;SDS011;58749;48.022;10.922;2022-11-30T00:46:27;40.08;;;23.02;;
6663;SDS011;58749;48.022;10.922;2022-11-30T00:48:55;38.17;;;22.90;;
6663;SDS011;58749;48.022;10.922;2022-11-30T00:51:23;41.05;;;22.08;;
6663;SDS011;58749;48.022;10.922;2022-11-30T00:53:51;39.28;;;21.60;;
6663;SDS011;58749;48.022;10.922;2022-11-30T00:56:20;36.10;;;20.88;;
6663;SDS011;58749;48.022;10.922;2022-11-30T00:58:50;35.45;;;20.27;;
6663;SDS011;58749;48.022;10.922;2022-11-30T01:01:18;34.33;;;20.35;;
6663;SDS011;58749;48.022;10.922;2022-11-30T01:03:47;33.40;;;19.25;;
6663;SDS011;58749;48.022;10.922;2022-11-30T01:06:15;30.45;;;17.35;;
6663;SDS011;58749;48.022;10.922;2022-11-30T01:08:44;31.75;;;17.63;;
6663;SDS011;58749;48.022;10.922;2022-11-30T01:11:14;30.90;;;16.48;;
6663;SDS011;58749;48.022;10.922;2022-11-30T01:13:44;37.85;;;19.67;;
6663;SDS011;58749;48.022;10.922;2022-11-30T01:16:12;33.05;;;18.33;;
6663;SDS011;58749;48.022;10.922;2022-11-30T01:18:42;33.35;;;17.70;;
6663;SDS011;58749;48.022;10.922;2022-11-30T01:21:13;25.10;;;13.43;;
6663;SDS011;58749;48.022;10.922;2022-11-30T01:23:42;29.60;;;16.90;;
6663;SDS011;58749;48.022;10.922;2022-11-30T01:26:11;27.63;;;15.73;;
6663;SDS011;58749;48.022;10.922;2022-11-30T01:28:39;29.08;;;16.30;;
6663;SDS011;58749;48.022;10.922;2022-11-30T01:31:09;29.77;;;16.98;;
6663;SDS011;58749;48.022;10.922;2022-11-30T01:33:39;22.67;;;13.93;;
6663;SDS011;58749;48.022;10.922;2022-11-30T01:36:09;25.50;;;14.85;;
6663;SDS011;58749;48.022;10.922;2022-11-30T01:38:40;26.58;;;15.07;;
6663;SDS011;58749;48.022;10.922;2022-11-30T01:41:10;24.80;;;14.68;;
6663;SDS011;58749;48.022;10.922;2022-11-30T01:43:40;26.42;;;15.35;;
6663;SDS011;58749;48.022;10.922;2022-11-30T01:46:17;28.30;;;14.93;;
6663;SDS011;58749;48.022;10.922;2022-11-30T01:48:53;24.05;;;14.90;;
6663;SDS011;58749;48.022;10.922;2022-11-30T01:51:26;26.83;;;15.43;;
6663;SDS011;58749;48.022;10.922;2022-11-30T01:53:59;27.42;;;15.00;;
6663;SDS011;58749;48.022;10.922;2022-11-30T01:56:28;25.23;;;14.93;;
6663;SDS011;58749;48.022;10.922;2022-11-30T01:58:56;29.77;;;16.35;;
6663;SDS011;58749;48.022;10.922;2022-11-30T02:01:24;27.77;;;15.00;;
6663;SDS011;58749;48.022;10.922;2022-11-30T02:03:54;22.40;;;12.45;;
6663;SDS011;58749;48.022;10.922;2022-11-30T02:06:26;23.67;;;13.35;;
6663;SDS011;58749;48.022;10.922;2022-11-30T02:08:55;28.35;;;15.20;;
6663;SDS011;58749;48.022;10.922;2022-11-30T02:11:24;25.40;;;15.40;;
6663;SDS011;58749;48.022;10.922;2022-11-30T02:14:09;28.75;;;15.73;;
6663;SDS011;58749;48.022;10.922;2022-11-30T02:16:50;25.88;;;14.63;;
6663;SDS011;58749;48.022;10.922;2022-11-30T02:22:35;28.92;;;16.05;;
6663;SDS011;58749;48.022;10.922;2022-11-30T02:25:15;31.23;;;17.58;;
6663;SDS011;58749;48.022;10.922;2022-11-30T02:27:54;29.95;;;17.58;;
6663;SDS011;58749;48.022;10.922;2022-11-30T02:30:34;30.77;;;16.58;;
6663;SDS011;58749;48.022;10.922;2022-11-30T02:33:07;29.25;;;16.90;;
6663;SDS011;58749;48.022;10.922;2022-11-30T02:35:39;30.58;;;17.70;;
6663;SDS011;58749;48.022;10.922;2022-11-30T02:38:13;33.65;;;16.95;;
6663;SDS011;58749;48.022;10.922;2022-11-30T02:40:45;32.83;;;17.23;;
6663;SDS011;58749;48.022;10.922;2022-11-30T02:43:13;39.42;;;18.35;;
6663;SDS011;58749;48.022;10.922;2022-11-30T02:45:46;34.30;;;17.83;;
6663;SDS011;58749;48.022;10.922;2022-11-30T02:48:20;34.45;;;17.85;;
6663;SDS011;58749;48.022;10.922;2022-11-30T02:50:56;33.67;;;17.98;;
6663;SDS011;58749;48.022;10.922;2022-11-30T02:53:28;32.85;;;17.65;;
6663;SDS011;58749;48.022;10.922;2022-11-30T02:55:56;33.65;;;16.95;;
6663;SDS011;58749;48.022;10.922;2022-11-30T02:58:24;32.67;;;17.60;;
6663;SDS011;58749;48.022;10.922;2022-11-30T03:00:54;28.73;;;16.20;;
6663;SDS011;58749;48.022;10.922;2022-11-30T03:03:22;30.65;;;16.10;;
6663;SDS011;58749;48.022;10.922;2022-11-30T03:05:53;29.15;;;16.42;;
6663;SDS011;58749;48.022;10.922;2022-11-30T03:08:21;29.60;;;15.48;;
6663;SDS011;58749;48.022;10.922;2022-11-30T03:10:49;31.67;;;16.75;;
6663;SDS011;58749;48.022;10.922;2022-11-30T03:13:17;31.58;;;16.50;;
6663;SDS011;58749;48.022;10.922;2022-11-30T03:15:46;33.88;;;17.63;;
6663;SDS011;58749;48.022;10.922;2022-11-30T03:18:15;33.20;;;16.60;;
6663;SDS011;58749;48.022;10.922;2022-11-30T03:20:43;31.65;;;16.98;;
6663;SDS011;58749;48.022;10.922;2022-11-30T03:23:11;33.58;;;16.83;;
6663;SDS011;58749;48.022;10.922;2022-11-30T03:25:39;30.13;;;16.75;;
6663;SDS011;58749;48.022;10.922;2022-11-30T03:28:07;31.50;;;16.50;;
6663;SDS011;58749;48.022;10.922;2022-11-30T03:30:35;32.78;;;16.50;;
6663;SDS011;58749;48.022;10.922;2022-11-30T03:33:03;32.72;;;16.25;;
6663;SDS011;58749;48.022;10.922;2022-11-30T03:35:33;32.22;;;16.55;;
6663;SDS011;58749;48.022;10.922;2022-11-30T03:38:01;32.88;;;16.20;;
6663;SDS011;58749;48.022;10.922;2022-11-30T03:40:29;32.33;;;17.60;;
6663;SDS011;58749;48.022;10.922;2022-11-30T03:42:57;35.03;;;16.13;;
6663;SDS011;58749;48.022;10.922;2022-11-30T03:45:25;30.67;;;15.75;;
6663;SDS011;58749;48.022;10.922;2022-11-30T03:47:53;31.73;;;16.73;;
6663;SDS011;58749;48.022;10.922;2022-11-30T03:50:21;32.30;;;16.42;;
6663;SDS011;58749;48.022;10.922;2022-11-30T03:52:50;36.90;;;16.88;;
6663;SDS011;58749;48.022;10.922;2022-11-30T03:55:18;34.17;;;18.30;;
6663;SDS011;58749;48.022;10.922;2022-11-30T03:57:46;33.38;;;17.50;;
6663;SDS011;58749;48.022;10.922;2022-11-30T04:00:15;30.65;;;14.40;;
6663;SDS011;58749;48.022;10.922;2022-11-30T04:02:43;31.42;;;15.45;;
6663;SDS011;58749;48.022;10.922;2022-11-30T04:05:11;30.98;;;16.25;;
6663;SDS011;58749;48.022;10.922;2022-11-30T04:07:39;28.88;;;15.27;;
6663;SDS011;58749;48.022;10.922;2022-11-30T04:10:10;28.85;;;14.63;;
6663;SDS011;58749;48.022;10.922;2022-11-30T04:12:38;30.27;;;15.18;;
6663;SDS011;58749;48.022;10.922;2022-11-30T04:15:06;31.85;;;16.25;;
6663;SDS011;58749;48.022;10.922;2022-11-30T04:17:35;32.67;;;15.85;;
6663;SDS011;58749;48.022;10.922;2022-11-30T04:20:06;33.60;;;15.38;;
6663;SDS011;58749;48.022;10.922;2022-11-30T04:22:35;31.90;;;15.70;;
6663;SDS011;58749;48.022;10.922;2022-11-30T04:25:03;33.15;;;16.77;;
6663;SDS011;58749;48.022;10.922;2022-11-30T04:27:33;33.05;;;15.73;;
6663;SDS011;58749;48.022;10.922;2022-11-30T04:30:01;33.13;;;16.55;;
6663;SDS011;58749;48.022;10.922;2022-11-30T04:32:29;31.58;;;15.48;;
6663;SDS011;58749;48.022;10.922;2022-11-30T04:34:57;35.33;;;17.10;;
6663;SDS011;58749;48.022;10.922;2022-11-30T04:37:25;36.75;;;17.50;;
6663;SDS011;58749;48.022;10.922;2022-11-30T04:39:53;34.97;;;15.75;;
6663;SDS011;58749;48.022;10.922;2022-11-30T04:42:21;31.58;;;16.38;;
6663;SDS011;58749;48.022;10.922;2022-11-30T04:44:50;31.45;;;15.50;;
6663;SDS011;58749;48.022;10.922;2022-11-30T04:47:18;34.72;;;15.95;;
6663;SDS011;58749;48.022;10.922;2022-11-30T04:49:46;36.35;;;16.58;;
6663;SDS011;58749;48.022;10.922;2022-11-30T04:52:14;30.17;;;14.73;;
6663;SDS011;58749;48.022;10.922;2022-11-30T04:54:42;31.52;;;16.20;;
6663;SDS011;58749;48.022;10.922;2022-11-30T04:57:11;33.28;;;15.70;;
6663;SDS011;58749;48.022;10.922;2022-11-30T04:59:39;29.73;;;15.70;;
6663;SDS011;58749;48.022;10.922;2022-11-30T05:02:08;29.40;;;14.20;;
6663;SDS011;58749;48.022;10.922;2022-11-30T05:04:36;30.58;;;14.38;;
6663;SDS011;58749;48.022;10.922;2022-11-30T05:07:04;33.65;;;16.27;;
6663;SDS011;58749;48.022;10.922;2022-11-30T05:09:33;30.55;;;14.75;;
6663;SDS011;58749;48.022;10.922;2022-11-30T05:12:01;26.25;;;12.35;;
6663;SDS011;58749;48.022;10.922;2022-11-30T05:14:29;27.38;;;12.77;;
6663;SDS011;58749;48.022;10.922;2022-11-30T05:16:57;27.90;;;12.05;;
6663;SDS011;58749;48.022;10.922;2022-11-30T05:19:26;26.15;;;12.43;;
6663;SDS011;58749;48.022;10.922;2022-11-30T05:21:54;25.27;;;12.25;;
6663;SDS011;58749;48.022;10.922;2022-11-30T05:24:22;26.48;;;13.00;;
6663;SDS011;58749;48.022;10.922;2022-11-30T05:26:50;23.65;;;11.32;;
6663;SDS011;58749;48.022;10.922;2022-11-30T05:29:18;26.40;;;13.43;;
6663;SDS011;58749;48.022;10.922;2022-11-30T05:31:47;29.38;;;13.60;;
6663;SDS011;58749;48.022;10.922;2022-11-30T05:34:15;33.20;;;13.93;;
6663;SDS011;58749;48.022;10.922;2022-11-30T05:36:45;28.75;;;14.02;;
6663;SDS011;58749;48.022;10.922;2022-11-30T05:39:13;33.33;;;14.90;;
6663;SDS011;58749;48.022;10.922;2022-11-30T05:41:41;33.03;;;16.38;;
6663;SDS011;58749;48.022;10.922;2022-11-30T05:44:09;28.65;;;13.65;;
6663;SDS011;58749;48.022;10.922;2022-11-30T05:46:38;30.60;;;14.00;;
6663;SDS011;58749;48.022;10.922;2022-11-30T05:49:06;27.73;;;14.63;;
6663;SDS011;58749;48.022;10.922;2022-11-30T05:51:34;28.70;;;14.70;;
6663;SDS011;58749;48.022;10.922;2022-11-30T05:54:04;28.85;;;15.45;;
6663;SDS011;58749;48.022;10.922;2022-11-30T05:56:32;30.88;;;15.02;;
6663;SDS011;58749;48.022;10.922;2022-11-30T05:59:00;34.47;;;16.80;;
6663;SDS011;58749;48.022;10.922;2022-11-30T06:01:28;32.67;;;15.38;;
6663;SDS011;58749;48.022;10.922;2022-11-30T06:03:56;29.00;;;13.98;;
6663;SDS011;58749;48.022;10.922;2022-11-30T06:06:24;28.35;;;14.38;;
6663;SDS011;58749;48.022;10.922;2022-11-30T06:08:52;30.58;;;14.75;;
6663;SDS011;58749;48.022;10.922;2022-11-30T06:11:22;28.90;;;12.90;;
6663;SDS011;58749;48.022;10.922;2022-11-30T06:13:50;26.45;;;12.65;;
6663;SDS011;58749;48.022;10.922;2022-11-30T06:16:18;22.50;;;11.82;;
6663;SDS011;58749;48.022;10.922;2022-11-30T06:18:46;21.08;;;11.23;;
6663;SDS011;58749;48.022;10.922;2022-11-30T06:21:14;22.20;;;11.80;;
6663;SDS011;58749;48.022;10.922;2022-11-30T06:23:49;25.17;;;12.38;;
6663;SDS011;58749;48.022;10.922;2022-11-30T06:26:17;18.30;;;10.93;;
6663;SDS011;58749;48.022;10.922;2022-11-30T06:28:47;22.63;;;11.32;;
6663;SDS011;58749;48.022;10.922;2022-11-30T06:31:15;19.50;;;11.05;;
6663;SDS011;58749;48.022;10.922;2022-11-30T06:33:43;23.35;;;11.40;;
6663;SDS011;58749;48.022;10.922;2022-11-30T06:36:11;25.27;;;12.20;;
6663;SDS011;58749;48.022;10.922;2022-11-30T06:38:39;23.00;;;11.48;;
6663;SDS011;58749;48.022;10.922;2022-11-30T06:41:08;22.98;;;11.65;;
6663;SDS011;58749;48.022;10.922;2022-11-30T06:43:38;23.38;;;11.43;;
6663;SDS011;58749;48.022;10.922;2022-11-30T06:46:07;22.50;;;11.75;;
6663;SDS011;58749;48.022;10.922;2022-11-30T06:48:36;23.80;;;12.43;;
6663;SDS011;58749;48.022;10.922;2022-11-30T06:51:05;24.98;;;13.25;;
6663;SDS011;58749;48.022;10.922;2022-11-30T06:53:34;27.63;;;13.57;;
6663;SDS011;58749;48.022;10.922;2022-11-30T06:56:02;27.58;;;14.13;;
6663;SDS011;58749;48.022;10.922;2022-11-30T06:58:36;26.92;;;14.55;;
6663;SDS011;58749;48.022;10.922;2022-11-30T07:01:05;25.80;;;13.13;;
6663;SDS011;58749;48.022;10.922;2022-11-30T07:03:35;27.05;;;14.38;;
6663;SDS011;58749;48.022;10.922;2022-11-30T07:06:05;32.03;;;16.05;;
6663;SDS011;58749;48.022;10.922;2022-11-30T07:08:34;29.70;;;14.60;;
6663;SDS011;58749;48.022;10.922;2022-11-30T07:11:02;29.55;;;15.55;;
6663;SDS011;58749;48.022;10.922;2022-11-30T07:13:31;27.65;;;14.43;;
6663;SDS011;58749;48.022;10.922;2022-11-30T07:16:01;24.63;;;13.15;;
6663;SDS011;58749;48.022;10.922;2022-11-30T07:18:30;25.45;;;13.82;;
6663;SDS011;58749;48.022;10.922;2022-11-30T07:21:00;22.75;;;12.50;;
6663;SDS011;58749;48.022;10.922;2022-11-30T07:23:28;27.63;;;13.82;;
6663;SDS011;58749;48.022;10.922;2022-11-30T07:26:21;22.08;;;11.57;;
6663;SDS011;58749;48.022;10.922;2022-11-30T07:28:50;24.65;;;13.10;;
6663;SDS011;58749;48.022;10.922;2022-11-30T07:31:21;22.02;;;11.73;;
6663;SDS011;58749;48.022;10.922;2022-11-30T07:33:50;20.17;;;10.70;;
6663;SDS011;58749;48.022;10.922;2022-11-30T07:36:20;23.92;;;11.57;;
6663;SDS011;58749;48.022;10.922;2022-11-30T07:38:51;20.38;;;10.50;;
6663;SDS011;58749;48.022;10.922;2022-11-30T07:41:22;20.00;;;10.43;;
6663;SDS011;58749;48.022;10.922;2022-11-30T07:43:50;22.50;;;12.38;;
6663;SDS011;58749;48.022;10.922;2022-11-30T07:46:18;19.77;;;10.20;;
6663;SDS011;58749;48.022;10.922;2022-11-30T07:48:46;23.55;;;11.48;;
6663;SDS011;58749;48.022;10.922;2022-11-30T07:51:15;21.85;;;10.82;;
6663;SDS011;58749;48.022;10.922;2022-11-30T07:53:46;20.73;;;11.38;;
6663;SDS011;58749;48.022;10.922;2022-11-30T07:56:15;20.92;;;10.98;;
6663;SDS011;58749;48.022;10.922;2022-11-30T07:58:44;18.63;;;9.82;;
6663;SDS011;58749;48.022;10.922;2022-11-30T08:01:13;19.73;;;10.55;;
6663;SDS011;58749;48.022;10.922;2022-11-30T08:03:43;18.02;;;10.23;;
6663;SDS011;58749;48.022;10.922;2022-11-30T08:06:12;21.73;;;10.75;;
6663;SDS011;58749;48.022;10.922;2022-11-30T08:08:42;19.95;;;9.73;;
6663;SDS011;58749;48.022;10.922;2022-11-30T08:11:13;19.88;;;10.43;;
6663;SDS011;58749;48.022;10.922;2022-11-30T08:13:42;19.40;;;10.48;;
6663;SDS011;58749;48.022;10.922;2022-11-30T08:16:11;17.25;;;9.00;;
6663;SDS011;58749;48.022;10.922;2022-11-30T08:18:41;16.38;;;9.27;;
6663;SDS011;58749;48.022;10.922;2022-11-30T08:21:09;18.70;;;9.57;;
6663;SDS011;58749;48.022;10.922;2022-11-30T08:23:39;19.95;;;10.35;;
6663;SDS011;58749;48.022;10.922;2022-11-30T08:26:09;16.45;;;9.95;;
6663;SDS011;58749;48.022;10.922;2022-11-30T08:28:41;19.17;;;10.18;;
6663;SDS011;58749;48.022;10.922;2022-11-30T08:31:10;20.05;;;10.40;;
6663;SDS011;58749;48.022;10.922;2022-11-30T08:33:41;20.38;;;11.30;;
6663;SDS011;58749;48.022;10.922;2022-11-30T08:36:10;20.15;;;11.13;;
6663;SDS011;58749;48.022;10.922;2022-11-30T08:38:40;19.05;;;11.07;;
6663;SDS011;58749;48.022;10.922;2022-11-30T08:41:09;20.42;;;11.15;;
6663;SDS011;58749;48.022;10.922;2022-11-30T08:43:40;19.63;;;10.85;;
6663;SDS011;58749;48.022;10.922;2022-11-30T08:46:09;21.65;;;11.35;;
6663;SDS011;58749;48.022;10.922;2022-11-30T08:48:58;22.33;;;10.30;;
6663;SDS011;58749;48.022;10.922;2022-11-30T08:51:46;15.95;;;8.93;;
6663;SDS011;58749;48.022;10.922;2022-11-30T08:54:34;21.23;;;9.40;;
6663;SDS011;58749;48.022;10.922;2022-11-30T08:57:04;19.13;;;8.45;;
6663;SDS011;58749;48.022;10.922;2022-11-30T08:59:33;18.73;;;9.20;;
6663;SDS011;58749;48.022;10.922;2022-11-30T09:02:01;17.02;;;9.90;;
6663;SDS011;58749;48.022;10.922;2022-11-30T09:04:29;18.92;;;9.57;;
6663;SDS011;58749;48.022;10.922;2022-11-30T09:06:57;18.77;;;10.38;;
6663;SDS011;58749;48.022;10.922;2022-11-30T09:09:26;17.00;;;9.57;;
6663;SDS011;58749;48.022;10.922;2022-11-30T09:11:54;19.38;;;8.98;;
6663;SDS011;58749;48.022;10.922;2022-11-30T09:14:22;19.65;;;10.35;;
6663;SDS011;58749;48.022;10.922;2022-11-30T09:16:52;16.63;;;9.20;;
6663;SDS011;58749;48.022;10.922;2022-11-30T09:19:21;18.50;;;10.77;;
6663;SDS011;58749;48.022;10.922;2022-11-30T09:21:49;18.75;;;9.57;;
6663;SDS011;58749;48.022;10.922;2022-11-30T09:24:18;18.73;;;9.07;;
6663;SDS011;58749;48.022;10.922;2022-11-30T09:26:46;17.58;;;9.88;;
6663;SDS011;58749;48.022;10.922;2022-11-30T09:29:14;15.52;;;9.10;;
6663;SDS011;58749;48.022;10.922;2022-11-30T09:31:42;17.02;;;9.00;;
6663;SDS011;58749;48.022;10.922;2022-11-30T09:34:12;15.93;;;8.88;;
6663;SDS011;58749;48.022;10.922;2022-11-30T09:36:40;14.65;;;7.97;;
6663;SDS011;58749;48.022;10.922;2022-11-30T09:39:08;14.95;;;8.30;;
6663;SDS011;58749;48.022;10.922;2022-11-30T09:44:45;15.43;;;8.32;;
6663;SDS011;58749;48.022;10.922;2022-11-30T09:47:24;13.45;;;7.63;;
6663;SDS011;58749;48.022;10.922;2022-11-30T09:50:09;15.32;;;8.27;;
6663;SDS011;58749;48.022;10.922;2022-11-30T09:52:40;12.38;;;6.93;;
6663;SDS011;58749;48.022;10.922;2022-11-30T09:55:12;12.40;;;6.85;;
6663;SDS011;58749;48.022;10.922;2022-11-30T10:00:13;13.77;;;7.35;;
6663;SDS011;58749;48.022;10.922;2022-11-30T10:02:44;18.92;;;8.90;;
6663;SDS011;58749;48.022;10.922;2022-11-30T10:05:14;17.67;;;9.02;;
6663;SDS011;58749;48.022;10.922;2022-11-30T10:07:47;13.32;;;7.72;;
6663;SDS011;58749;48.022;10.922;2022-11-30T10:10:33;10.23;;;5.93;;
6663;SDS011;58749;48.022;10.922;2022-11-30T10:13:13;13.82;;;6.55;;
6663;SDS011;58749;48.022;10.922;2022-11-30T10:15:56;10.32;;;5.93;;
6663;SDS011;58749;48.022;10.922;2022-11-30T10:18:38;10.73;;;5.70;;
6663;SDS011;58749;48.022;10.922;2022-11-30T10:21:18;12.70;;;7.22;;
6663;SDS011;58749;48.022;10.922;2022-11-30T10:24:03;12.48;;;7.63;;
6663;SDS011;58749;48.022;10.922;2022-11-30T10:26:42;13.48;;;7.82;;
6663;SDS011;58749;48.022;10.922;2022-11-30T10:29:19;16.48;;;8.63;;
6663;SDS011;58749;48.022;10.922;2022-11-30T10:31:54;15.75;;;8.75;;
6663;SDS011;58749;48.022;10.922;2022-11-30T10:34:26;17.55;;;9.07;;
6663;SDS011;58749;48.022;10.922;2022-11-30T10:37:01;14.25;;;9.00;;
6663;SDS011;58749;48.022;10.922;2022-11-30T10:39:39;19.58;;;10.27;;
6663;SDS011;58749;48.022;10.922;2022-11-30T10:42:11;19.20;;;11.15;;
6663;SDS011;58749;48.022;10.922;2022-11-30T10:44:43;19.98;;;10.57;;
6663;SDS011;58749;48.022;10.922;2022-11-30T10:47:20;22.58;;;11.68;;
6663;SDS011;58749;48.022;10.922;2022-11-30T10:49:51;20.20;;;10.93;;
6663;SDS011;58749;48.022;10.922;2022-11-30T10:52:21;19.65;;;10.80;;
6663;SDS011;58749;48.022;10.922;2022-11-30T10:54:52;21.42;;;10.25;;
6663;SDS011;58749;48.022;10.922;2022-11-30T10:57:30;14.90;;;7.80;;
6663;SDS011;58749;48.022;10.922;2022-11-30T10:59:59;15.88;;;8.63;;
6663;SDS011;58749;48.022;10.922;2022-11-30T11:02:33;15.50;;;8.93;;
6663;SDS011;58749;48.022;10.922;2022-11-30T11:05:07;17.08;;;8.88;;
6663;SDS011;58749;48.022;10.922;2022-11-30T11:07:46;15.07;;;8.80;;
6663;SDS011;58749;48.022;10.922;2022-11-30T11:10:17;15.25;;;8.57;;
6663;SDS011;58749;48.022;10.922;2022-11-30T11:12:48;15.40;;;10.10;;
6663;SDS011;58749;48.022;10.922;2022-11-30T11:15:18;14.90;;;8.48;;
6663;SDS011;58749;48.022;10.922;2022-11-30T11:17:48;16.13;;;8.52;;
6663;SDS011;58749;48.022;10.922;2022-11-30T11:20:31;14.35;;;8.32;;
6663;SDS011;58749;48.022;10.922;2022-11-30T11:23:02;15.65;;;8.82;;
6663;SDS011;58749;48.022;10.922;2022-11-30T11:25:32;14.88;;;8.63;;
6663;SDS011;58749;48.022;10.922;2022-11-30T11:28:03;19.15;;;9.85;;
6663;SDS011;58749;48.022;10.922;2022-11-30T11:30:34;14.88;;;8.30;;
6663;SDS011;58749;48.022;10.922;2022-11-30T11:33:07;15.68;;;8.95;;
6663;SDS011;58749;48.022;10.922;2022-11-30T11:38:21;15.82;;;8.82;;
6663;SDS011;58749;48.022;10.922;2022-11-30T11:40:52;13.43;;;8.00;;
6663;SDS011;58749;48.022;10.922;2022-11-30T11:43:23;15.63;;;8.82;;
6663;SDS011;58749;48.022;10.922;2022-11-30T11:45:54;13.30;;;7.88;;
6663;SDS011;58749;48.022;10.922;2022-11-30T11:48:31;12.57;;;8.10;;
6663;SDS011;58749;48.022;10.922;2022-11-30T11:51:02;14.73;;;8.70;;
6663;SDS011;58749;48.022;10.922;2022-11-30T11:53:37;17.75;;;8.60;;
6663;SDS011;58749;48.022;10.922;2022-11-30T11:56:19;16.42;;;9.52;;
6663;SDS011;58749;48.022;10.922;2022-11-30T11:58:54;14.80;;;8.85;;
6663;SDS011;58749;48.022;10.922;2022-11-30T12:01:40;15.60;;;8.43;;
6663;SDS011;58749;48.022;10.922;2022-11-30T12:04:17;15.10;;;8.00;;
6663;SDS011;58749;48.022;10.922;2022-11-30T12:06:57;13.63;;;8.65;;
6663;SDS011;58749;48.022;10.922;2022-11-30T12:09:33;15.25;;;9.20;;
6663;SDS011;58749;48.022;10.922;2022-11-30T12:12:08;15.85;;;9.20;;
6663;SDS011;58749;48.022;10.922;2022-11-30T12:14:39;19.92;;;10.15;;
6663;SDS011;58749;48.022;10.922;2022-11-30T12:17:12;18.10;;;10.82;;
6663;SDS011;58749;48.022;10.922;2022-11-30T12:19:53;22.38;;;11.82;;
6663;SDS011;58749;48.022;10.922;2022-11-30T12:22:39;18.77;;;10.82;;
6663;SDS011;58749;48.022;10.922;2022-11-30T12:25:20;19.13;;;10.43;;
6663;SDS011;58749;48.022;10.922;2022-11-30T12:27:54;19.38;;;10.52;;
6663;SDS011;58749;48.022;10.922;2022-11-30T12:30:35;18.95;;;10.75;;
6663;SDS011;58749;48.022;10.922;2022-11-30T12:33:16;21.20;;;11.57;;
6663;SDS011;58749;48.022;10.922;2022-11-30T12:35:57;24.45;;;12.63;;
6663;SDS011;58749;48.022;10.922;2022-11-30T12:38:34;24.98;;;13.10;;
6663;SDS011;58749;48.022;10.922;2022-11-30T12:41:16;24.90;;;12.55;;
6663;SDS011;58749;48.022;10.922;2022-11-30T12:43:54;22.65;;;11.30;;
6663;SDS011;58749;48.022;10.922;2022-11-30T12:46:31;29.58;;;15.57;;
6663;SDS011;58749;48.022;10.922;2022-11-30T12:49:12;25.23;;;13.32;;
6663;SDS011;58749;48.022;10.922;2022-11-30T12:51:52;30.60;;;16.00;;
6663;SDS011;58749;48.022;10.922;2022-11-30T12:54:31;30.45;;;14.70;;
6663;SDS011;58749;48.022;10.922;2022-11-30T12:57:07;29.00;;;15.38;;
6663;SDS011;58749;48.022;10.922;2022-11-30T12:59:42;27.00;;;13.77;;
6663;SDS011;58749;48.022;10.922;2022-11-30T13:05:17;26.10;;;13.77;;
6663;SDS011;58749;48.022;10.922;2022-11-30T13:10:22;25.92;;;12.27;;
6663;SDS011;58749;48.022;10.922;2022-11-30T13:12:55;23.92;;;13.05;;
6663;SDS011;58749;48.022;10.922;2022-11-30T13:15:24;23.48;;;12.48;;
6663;SDS011;58749;48.022;10.922;2022-11-30T13:17:54;23.13;;;11.90;;
6663;SDS011;58749;48.022;10.922;2022-11-30T13:20:24;29.38;;;13.05;;
6663;SDS011;58749;48.022;10.922;2022-11-30T13:23:01;22.52;;;11.77;;
6663;SDS011;58749;48.022;10.922;2022-11-30T13:25:37;27.02;;;13.85;;
6663;SDS011;58749;48.022;10.922;2022-11-30T13:28:36;21.70;;;12.38;;
6663;SDS011;58749;48.022;10.922;2022-11-30T13:31:21;25.85;;;14.05;;
6663;SDS011;58749;48.022;10.922;2022-11-30T13:33:56;24.17;;;12.63;;
6663;SDS011;58749;48.022;10.922;2022-11-30T13:36:32;21.00;;;11.80;;
6663;SDS011;58749;48.022;10.922;2022-11-30T13:39:15;22.38;;;12.00;;
6663;SDS011;58749;48.022;10.922;2022-11-30T13:41:51;29.15;;;14.45;;
6663;SDS011;58749;48.022;10.922;2022-11-30T13:44:58;23.50;;;11.45;;
6663;SDS011;58749;48.022;10.922;2022-11-30T13:47:44;23.52;;;12.50;;
6663;SDS011;58749;48.022;10.922;2022-11-30T13:50:18;26.35;;;13.10;;
6663;SDS011;58749;48.022;10.922;2022-11-30T13:56:03;24.55;;;12.50;;
6663;SDS011;58749;48.022;10.922;2022-11-30T13:58:33;30.77;;;15.80;;
6663;SDS011;58749;48.022;10.922;2022-11-30T14:06:59;24.08;;;13.75;;
6663;SDS011;58749;48.022;10.922;2022-11-30T14:15:25;22.77;;;12.93;;
6663;SDS011;58749;48.022;10.922;2022-11-30T14:18:14;23.45;;;12.98;;
6663;SDS011;58749;48.022;10.922;2022-11-30T14:20:47;24.30;;;12.25;;
6663;SDS011;58749;48.022;10.922;2022-11-30T14:23:20;24.90;;;12.82;;
6663;SDS011;58749;48.022;10.922;2022-11-30T14:25:52;26.42;;;14.25;;
6663;SDS011;58749;48.022;10.922;2022-11-30T14:28:23;23.20;;;12.90;;
6663;SDS011;58749;48.022;10.922;2022-11-30T14:31:01;23.85;;;12.82;;
6663;SDS011;58749;48.022;10.922;2022-11-30T14:33:37;24.70;;;12.55;;
6663;SDS011;58749;48.022;10.922;2022-11-30T14:36:09;24.42;;;13.68;;
6663;SDS011;58749;48.022;10.922;2022-11-30T14:38:39;24.48;;;12.82;;
6663;SDS011;58749;48.022;10.922;2022-11-30T14:44:00;22.45;;;11.50;;
6663;SDS011;58749;48.022;10.922;2022-11-30T14:46:30;21.65;;;11.90;;
6663;SDS011;58749;48.022;10.922;2022-11-30T14:51:49;22.25;;;11.48;;
6663;SDS011;58749;48.022;10.922;2022-11-30T14:57:18;23.88;;;13.10;;
6663;SDS011;58749;48.022;10.922;2022-11-30T14:59:54;22.83;;;12.70;;
6663;SDS011;58749;48.022;10.922;2022-11-30T15:02:24;26.67;;;13.43;;
6663;SDS011;58749;48.022;10.922;2022-11-30T15:04:57;28.85;;;13.57;;
6663;SDS011;58749;48.022;10.922;2022-11-30T15:07:26;26.55;;;14.38;;
6663;SDS011;58749;48.022;10.922;2022-11-30T15:09:59;28.45;;;14.73;;
6663;SDS011;58749;48.022;10.922;2022-11-30T15:12:30;29.55;;;15.23;;
6663;SDS011;58749;48.022;10.922;2022-11-30T15:15:00;35.33;;;17.73;;
6663;SDS011;58749;48.022;10.922;2022-11-30T15:17:41;28.25;;;15.15;;
6663;SDS011;58749;48.022;10.922;2022-11-30T15:20:22;32.83;;;16.70;;
6663;SDS011;58749;48.022;10.922;2022-11-30T15:22:53;32.58;;;16.98;;
6663;SDS011;58749;48.022;10.922;2022-11-30T15:25:24;30.38;;;16.08;;
6663;SDS011;58749;48.022;10.922;2022-11-30T15:27:57;31.90;;;16.27;;
6663;SDS011;58749;48.022;10.922;2022-11-30T15:30:25;28.25;;;15.15;;